createdAt,value
2023-05-12T00:00:33.906Z,5.13
2023-05-12T00:03:03.707Z,5.37
2023-05-12T00:05:30.749Z,4.37
2023-05-12T00:07:57.647Z,4.87
2023-05-12T00:10:27.413Z,4.67
2023-05-12T00:12:55.507Z,4.43
2023-05-12T00:15:22.908Z,4.87
2023-05-12T00:17:50.777Z,4.60
2023-05-12T00:20:18.055Z,5.20
2023-05-12T00:22:45.046Z,5.43
2023-05-12T00:25:11.943Z,6.07
2023-05-12T00:27:40.335Z,5.57
2023-05-12T00:30:08.429Z,5.20
2023-05-12T00:32:35.313Z,5.97
2023-05-12T00:35:02.250Z,5.43
2023-05-12T00:37:29.141Z,5.20
2023-05-12T00:39:56.072Z,5.40
2023-05-12T00:42:22.965Z,6.00
2023-05-12T00:44:51.255Z,6.00
2023-05-12T00:47:20.170Z,6.67
2023-05-12T00:49:47.244Z,5.50
2023-05-12T00:52:14.161Z,8.53
2023-05-12T00:54:43.379Z,6.60
2023-05-12T00:57:10.681Z,6.90
2023-05-12T00:59:37.557Z,6.97
2023-05-12T01:02:07.233Z,7.33
2023-05-12T01:04:35.742Z,7.77
2023-05-12T01:07:09.824Z,8.03
2023-05-12T01:09:37.759Z,8.80
2023-05-12T01:12:05.547Z,7.87
2023-05-12T01:14:34.203Z,8.23
2023-05-12T01:17:07.933Z,7.90
2023-05-12T01:19:42.436Z,8.00
2023-05-12T01:22:12.350Z,9.50
2023-05-12T01:24:46.533Z,8.70
2023-05-12T01:27:16.120Z,8.77
2023-05-12T01:29:45.512Z,8.80
2023-05-12T01:32:13.188Z,8.53
2023-05-12T01:34:42.512Z,7.87
2023-05-12T01:37:09.732Z,7.80
2023-05-12T01:39:37.258Z,7.37
2023-05-12T01:42:05.180Z,8.17
2023-05-12T01:44:33.490Z,8.80
2023-05-12T01:47:01.550Z,8.90
2023-05-12T01:49:29.270Z,8.27
2023-05-12T01:51:56.394Z,9.10
2023-05-12T01:54:29.145Z,9.47
2023-05-12T01:56:56.156Z,9.10
2023-05-12T01:59:23.042Z,9.57
2023-05-12T02:01:51.547Z,9.33
2023-05-12T02:04:25.043Z,10.10
2023-05-12T02:06:52.642Z,9.67
2023-05-12T02:09:19.538Z,10.13
2023-05-12T02:11:46.568Z,9.87
2023-05-12T02:14:13.499Z,10.93
2023-05-12T02:16:40.866Z,10.30
2023-05-12T02:19:09.382Z,10.80
2023-05-12T02:21:36.468Z,10.30
2023-05-12T02:24:03.589Z,11.63
2023-05-12T02:26:31.518Z,10.13
2023-05-12T02:28:58.416Z,10.87
2023-05-12T02:31:25.812Z,11.20
2023-05-12T02:33:53.095Z,10.47
2023-05-12T02:36:21.398Z,11.43
2023-05-12T02:38:48.302Z,13.40
2023-05-12T02:41:15.430Z,13.23
2023-05-12T02:43:42.371Z,12.43
2023-05-12T02:46:09.302Z,11.63
2023-05-12T02:48:36.338Z,13.77
2023-05-12T02:51:03.362Z,13.97
2023-05-12T02:53:31.635Z,13.20
2023-05-12T02:55:58.554Z,14.50
2023-05-12T02:58:25.578Z,14.37
2023-05-12T03:01:03.059Z,13.60
2023-05-12T03:03:34.084Z,12.70
2023-05-12T03:06:01.119Z,14.30
2023-05-12T03:08:29.214Z,15.27
2023-05-12T03:10:57.452Z,13.57
2023-05-12T03:13:24.440Z,14.97
2023-05-12T03:15:51.835Z,13.80
2023-05-12T03:18:18.733Z,13.43
2023-05-12T03:20:45.659Z,14.63
2023-05-12T03:23:12.784Z,14.33
2023-05-12T03:25:39.690Z,15.37
2023-05-12T03:28:07.890Z,13.93
2023-05-12T03:30:34.796Z,13.83
2023-05-12T03:33:01.941Z,13.00
2023-05-12T03:35:30.903Z,13.20
2023-05-12T03:38:00.698Z,14.70
2023-05-12T03:40:27.615Z,12.40
2023-05-12T03:42:54.508Z,10.50
2023-05-12T03:45:22.810Z,12.37
2023-05-12T03:47:49.793Z,11.63
2023-05-12T03:50:17.432Z,10.60
2023-05-12T03:52:44.530Z,10.43
2023-05-12T03:55:11.530Z,10.27
2023-05-12T03:57:38.520Z,12.73
2023-05-12T04:00:07.299Z,11.10
2023-05-12T04:02:44.665Z,11.67
2023-05-12T04:05:13.997Z,11.87
2023-05-12T04:07:41.940Z,10.70
2023-05-12T04:10:09.281Z,10.70
2023-05-12T04:12:36.189Z,10.87
2023-05-12T04:15:04.148Z,10.53
2023-05-12T04:17:31.154Z,11.30
2023-05-12T04:19:59.555Z,10.27
2023-05-12T04:22:26.598Z,11.97
2023-05-12T04:24:54.252Z,10.40
2023-05-12T04:27:21.453Z,12.27
2023-05-12T04:29:48.317Z,11.77
2023-05-12T04:32:15.920Z,12.07
2023-05-12T04:34:43.101Z,12.00
2023-05-12T04:37:11.350Z,11.03
2023-05-12T04:39:38.181Z,11.83
2023-05-12T04:42:05.848Z,12.50
2023-05-12T04:44:34.177Z,11.07
2023-05-12T04:47:01.094Z,12.87
2023-05-12T04:49:28.006Z,11.87
2023-05-12T04:51:54.829Z,10.97
2023-05-12T04:54:23.061Z,11.07
2023-05-12T04:56:49.968Z,11.67
2023-05-12T04:59:17.655Z,11.53
2023-05-12T05:01:46.091Z,11.50
2023-05-12T05:04:13.827Z,12.07
2023-05-12T05:06:41.010Z,10.77
2023-05-12T05:09:08.027Z,11.03
2023-05-12T05:11:36.309Z,11.07
2023-05-12T05:14:03.260Z,11.10
2023-05-12T05:16:30.624Z,10.27
2023-05-12T05:18:58.583Z,11.17
2023-05-12T05:21:26.209Z,11.23
2023-05-12T05:23:53.222Z,11.67
2023-05-12T05:26:22.164Z,12.27
2023-05-12T05:28:55.049Z,11.00
2023-05-12T05:31:23.591Z,10.77
2023-05-12T05:33:50.627Z,11.47
2023-05-12T05:36:17.659Z,11.40
2023-05-12T05:38:44.474Z,11.60
2023-05-12T05:41:11.504Z,12.37
2023-05-12T05:43:38.547Z,10.67
2023-05-12T05:46:07.976Z,11.17
2023-05-12T05:48:36.435Z,11.20
2023-05-12T05:51:04.946Z,11.97
2023-05-12T05:53:32.297Z,11.87
2023-05-12T05:56:00.031Z,11.27
2023-05-12T05:58:27.361Z,10.97
2023-05-12T06:00:56.031Z,11.00
2023-05-12T06:03:24.770Z,10.70
2023-05-12T06:05:51.869Z,10.77
2023-05-12T06:08:18.884Z,8.83
2023-05-12T06:10:45.972Z,9.50
2023-05-12T06:13:12.888Z,9.30
2023-05-12T06:15:39.786Z,12.23
2023-05-12T06:18:06.836Z,13.17
2023-05-12T06:20:35.254Z,12.40
2023-05-12T06:23:02.268Z,11.50
2023-05-12T06:25:29.231Z,13.33
2023-05-12T06:27:56.142Z,11.10
2023-05-12T06:30:23.354Z,11.13
2023-05-12T06:32:50.318Z,11.23
2023-05-12T06:35:17.925Z,11.00
2023-05-12T06:37:49.734Z,11.97
2023-05-12T06:40:17.315Z,10.57
2023-05-12T06:42:44.381Z,9.50
2023-05-12T06:45:13.046Z,9.70
2023-05-12T06:47:40.318Z,9.37
2023-05-12T06:50:08.524Z,8.60
2023-05-12T06:52:35.748Z,10.57
2023-05-12T06:55:05.617Z,11.23
2023-05-12T06:57:32.531Z,9.83
2023-05-12T07:00:00.560Z,10.20
2023-05-12T07:02:27.476Z,9.67
2023-05-12T07:04:54.392Z,10.67
2023-05-12T07:07:21.549Z,9.63
2023-05-12T07:09:48.618Z,9.10
2023-05-12T07:12:16.943Z,8.77
2023-05-12T07:14:43.782Z,8.83
2023-05-12T07:17:10.681Z,9.67
2023-05-12T07:19:39.627Z,10.20
2023-05-12T07:22:06.672Z,8.17
2023-05-12T07:24:33.582Z,6.33
2023-05-12T07:27:00.754Z,9.57
2023-05-12T07:29:28.950Z,6.73
2023-05-12T07:31:56.209Z,5.67
2023-05-12T07:34:23.037Z,6.67
2023-05-12T07:36:49.951Z,7.60
2023-05-12T07:39:23.244Z,5.67
2023-05-12T07:41:50.116Z,6.40
2023-05-12T07:44:17.164Z,6.10
2023-05-12T07:46:45.820Z,6.43
2023-05-12T07:49:12.822Z,6.30
2023-05-12T07:51:39.827Z,6.97
2023-05-12T07:54:07.260Z,6.77
2023-05-12T07:56:34.275Z,6.90
2023-05-12T07:59:01.172Z,6.10
2023-05-12T08:01:28.045Z,5.77
2023-05-12T08:03:56.383Z,6.73
2023-05-12T08:06:24.928Z,6.50
2023-05-12T08:08:52.029Z,6.00
2023-05-12T08:11:18.854Z,6.40
2023-05-12T08:13:45.690Z,5.33
2023-05-12T08:16:12.513Z,5.00
2023-05-12T08:18:39.402Z,5.27
2023-05-12T08:21:07.733Z,4.47
2023-05-12T08:23:34.922Z,3.67
2023-05-12T08:26:01.718Z,3.50
2023-05-12T08:28:28.610Z,4.10
2023-05-12T08:30:55.608Z,3.30
2023-05-12T08:33:22.624Z,3.00
2023-05-12T08:35:49.547Z,3.13
2023-05-12T08:38:17.891Z,5.47
2023-05-12T08:40:53.873Z,4.30
2023-05-12T08:43:26.247Z,6.00
2023-05-12T08:45:57.438Z,4.20
2023-05-12T08:48:29.261Z,4.57
2023-05-12T08:50:57.881Z,5.40
2023-05-12T08:53:27.797Z,4.03
2023-05-12T08:57:09.582Z,4.47
2023-05-12T08:58:44.805Z,3.80
2023-05-12T09:01:12.609Z,3.23
2023-05-12T09:03:39.785Z,3.27
2023-05-12T09:06:07.007Z,3.73
2023-05-12T09:08:36.744Z,4.37
2023-05-12T09:11:04.076Z,5.50
2023-05-12T09:13:40.215Z,4.63
2023-05-12T09:16:11.126Z,3.27
2023-05-12T09:18:47.070Z,2.60
2023-05-12T09:21:14.243Z,2.63
2023-05-12T09:23:52.843Z,3.63
2023-05-12T09:26:19.738Z,2.93
2023-05-12T09:28:46.578Z,3.57
2023-05-12T09:31:17.650Z,3.57
2023-05-12T09:33:45.271Z,3.37
2023-05-12T09:36:12.258Z,5.53
2023-05-12T09:38:39.137Z,2.67
2023-05-12T09:41:07.413Z,2.10
2023-05-12T09:43:34.364Z,2.67
2023-05-12T09:46:05.983Z,4.07
2023-05-12T09:48:33.711Z,2.80
2023-05-12T09:51:00.644Z,2.17
2023-05-12T09:53:27.599Z,1.60
2023-05-12T09:55:54.457Z,2.20
2023-05-12T09:58:25.673Z,2.87
2023-05-12T10:03:26.155Z,2.27
2023-05-12T10:05:56.455Z,2.00
2023-05-12T10:08:27.105Z,3.00
2023-05-12T10:10:57.479Z,2.27
2023-05-12T10:13:26.412Z,2.30
2023-05-12T10:15:57.134Z,2.77
2023-05-12T10:18:24.278Z,2.00
2023-05-12T10:20:53.587Z,2.33
2023-05-12T10:23:21.184Z,2.60
2023-05-12T10:25:49.401Z,2.43
2023-05-12T10:28:16.789Z,1.90
2023-05-12T10:30:46.313Z,2.40
2023-05-12T10:33:13.276Z,1.70
2023-05-12T10:35:42.644Z,3.33
2023-05-12T10:38:11.582Z,2.43
2023-05-12T10:40:51.624Z,2.03
2023-05-12T10:43:25.585Z,2.33
2023-05-12T10:46:16.380Z,1.63
2023-05-12T10:48:55.073Z,1.97
2023-05-12T10:51:23.548Z,2.07
2023-05-12T10:53:57.169Z,1.77
2023-05-12T10:56:26.487Z,2.50
2023-05-12T10:59:13.293Z,1.90
2023-05-12T11:01:55.826Z,2.43
2023-05-12T11:04:25.236Z,2.03
2023-05-12T11:07:02.875Z,2.40
2023-05-12T11:09:31.106Z,2.87
2023-05-12T11:11:58.585Z,2.40
2023-05-12T11:14:25.924Z,2.47
2023-05-12T11:16:54.206Z,2.77
2023-05-12T11:19:21.070Z,2.37
2023-05-12T11:21:48.268Z,3.27
2023-05-12T11:24:16.617Z,2.90
2023-05-12T11:26:43.529Z,2.13
2023-05-12T11:29:10.446Z,5.10
2023-05-12T11:31:38.310Z,4.27
2023-05-12T11:34:13.119Z,4.07
2023-05-12T11:36:42.392Z,5.13
2023-05-12T11:39:14.175Z,4.33
2023-05-12T11:41:41.132Z,4.43
2023-05-12T11:44:15.992Z,4.57
2023-05-12T11:46:53.450Z,5.57
2023-05-12T11:49:21.790Z,3.73
2023-05-12T11:51:50.964Z,3.57
2023-05-12T11:54:17.982Z,3.97
2023-05-12T11:56:48.334Z,2.80
2023-05-12T11:59:26.387Z,2.47
2023-05-12T12:01:53.330Z,2.33
2023-05-12T12:04:31.425Z,3.20
2023-05-12T12:06:58.506Z,2.00
2023-05-12T12:09:31.140Z,2.00
2023-05-12T12:11:58.058Z,2.30
2023-05-12T12:14:24.977Z,1.70
2023-05-12T12:16:51.814Z,2.23
2023-05-12T12:19:18.643Z,2.03
2023-05-12T12:21:46.943Z,2.83
2023-05-12T12:24:13.823Z,2.40
2023-05-12T12:26:40.715Z,2.13
2023-05-12T12:29:07.917Z,2.47
2023-05-12T12:31:36.482Z,3.40
2023-05-12T12:34:04.328Z,2.77
2023-05-12T12:36:32.244Z,2.13
2023-05-12T12:39:00.563Z,3.00
2023-05-12T12:41:27.508Z,2.50
2023-05-12T12:43:54.442Z,3.30
2023-05-12T12:46:21.468Z,2.70
2023-05-12T12:48:48.458Z,2.50
2023-05-12T12:51:15.297Z,3.10
2023-05-12T12:53:45.709Z,2.70
2023-05-12T12:56:14.008Z,2.40
2023-05-12T12:58:41.327Z,2.20
2023-05-12T13:01:08.961Z,2.43
2023-05-12T13:03:36.024Z,1.90
2023-05-12T13:06:03.206Z,3.37
2023-05-12T13:08:30.076Z,2.20
2023-05-12T13:10:57.022Z,1.93
2023-05-12T13:13:25.353Z,2.13
2023-05-12T13:15:53.095Z,1.77
2023-05-12T13:18:20.722Z,2.00
2023-05-12T13:20:47.745Z,1.70
2023-05-12T13:23:14.954Z,1.77
2023-05-12T13:25:41.896Z,1.47
2023-05-12T13:28:08.806Z,1.37
2023-05-12T13:30:38.021Z,1.50
2023-05-12T13:33:06.127Z,1.43
2023-05-12T13:35:33.822Z,1.60
2023-05-12T13:38:00.696Z,1.60
2023-05-12T13:40:27.616Z,2.53
2023-05-12T13:42:54.557Z,2.40
2023-05-12T13:45:21.741Z,2.37
2023-05-12T13:47:50.133Z,3.67
2023-05-12T13:50:17.078Z,3.20
2023-05-12T13:52:45.036Z,3.07
2023-05-12T13:55:18.434Z,2.80
2023-05-12T13:57:47.592Z,3.63
2023-05-12T14:00:17.182Z,3.37
2023-05-12T14:02:47.608Z,4.07
2023-05-12T14:05:16.639Z,4.00
2023-05-12T14:07:43.653Z,4.47
2023-05-12T14:10:11.263Z,4.47
2023-05-12T14:12:38.657Z,3.43
2023-05-12T14:15:29.213Z,3.60
2023-05-12T14:17:54.337Z,4.00
2023-05-12T14:20:22.593Z,4.57
2023-05-12T14:22:49.463Z,3.27
2023-05-12T14:25:16.410Z,3.37
2023-05-12T14:27:43.407Z,4.33
2023-05-12T14:30:11.135Z,3.80
2023-05-12T14:32:38.153Z,4.83
2023-05-12T14:35:07.683Z,5.37
2023-05-12T14:37:37.312Z,4.63
2023-05-12T14:40:05.389Z,6.30
2023-05-12T14:42:32.398Z,5.20
2023-05-12T14:44:59.492Z,4.77
2023-05-12T14:47:26.708Z,5.60
2023-05-12T14:49:53.836Z,4.50
2023-05-12T14:52:20.667Z,6.27
2023-05-12T14:54:48.855Z,4.80
2023-05-12T14:57:15.712Z,5.83
2023-05-12T14:59:42.532Z,5.63
2023-05-12T15:02:09.410Z,4.97
2023-05-12T15:04:36.353Z,5.10
2023-05-12T15:07:04.937Z,5.10
2023-05-12T15:09:31.792Z,5.47
2023-05-12T15:12:00.047Z,5.43
2023-05-12T15:14:26.923Z,4.80
2023-05-12T15:16:53.885Z,4.53
2023-05-12T15:19:21.382Z,4.83
2023-05-12T15:21:48.446Z,5.17
2023-05-12T15:24:15.513Z,4.93
2023-05-12T15:26:42.397Z,5.33
2023-05-12T15:29:10.593Z,4.20
2023-05-12T15:31:37.511Z,4.67
2023-05-12T15:34:04.465Z,5.27
2023-05-12T15:36:32.328Z,5.03
2023-05-12T15:38:59.513Z,4.23
2023-05-12T15:41:26.381Z,4.77
2023-05-12T15:43:53.198Z,3.80
2023-05-12T15:46:21.735Z,4.20
2023-05-12T15:48:49.048Z,4.20
2023-05-12T15:51:15.933Z,4.63
2023-05-12T15:53:43.396Z,4.43
2023-05-12T15:56:10.304Z,4.07
2023-05-12T15:58:37.377Z,4.97
2023-05-12T16:01:04.462Z,4.60
2023-05-12T16:03:32.818Z,4.00
2023-05-12T16:05:59.769Z,5.80
2023-05-12T16:08:26.850Z,4.73
2023-05-12T16:10:53.724Z,3.63
2023-05-12T16:13:20.655Z,3.77
2023-05-12T16:15:50.314Z,3.97
2023-05-12T16:18:17.972Z,3.70
2023-05-12T16:20:47.456Z,3.67
2023-05-12T16:23:14.370Z,3.43
2023-05-12T16:25:42.081Z,5.13
2023-05-12T16:28:08.968Z,3.23
2023-05-12T16:30:35.850Z,3.30
2023-05-12T16:33:02.792Z,5.87
2023-05-12T16:35:29.708Z,4.37
2023-05-12T16:37:57.907Z,3.60
2023-05-12T16:40:24.988Z,3.80
2023-05-12T16:42:52.648Z,3.80
2023-05-12T16:45:21.214Z,4.27
2023-05-12T16:47:48.254Z,5.67
2023-05-12T16:50:15.531Z,3.50
2023-05-12T16:52:42.708Z,3.77
2023-05-12T16:55:11.106Z,3.97
2023-05-12T16:57:38.533Z,4.80
2023-05-12T17:00:09.478Z,3.47
2023-05-12T17:02:36.675Z,3.33
2023-05-12T17:05:03.665Z,3.53
2023-05-12T17:07:31.054Z,3.90
2023-05-12T17:09:58.135Z,4.20
2023-05-12T17:12:26.382Z,4.13
2023-05-12T17:15:06.233Z,3.63
2023-05-12T17:17:34.981Z,4.10
2023-05-12T17:20:02.308Z,5.50
2023-05-12T17:22:30.865Z,3.40
2023-05-12T17:24:57.732Z,3.30
2023-05-12T17:27:25.984Z,3.40
2023-05-12T17:29:52.955Z,3.23
2023-05-12T17:32:19.816Z,4.10
2023-05-12T17:34:50.043Z,3.37
2023-05-12T17:37:17.004Z,4.23
2023-05-12T17:39:44.405Z,3.43
2023-05-12T17:42:11.275Z,4.43
2023-05-12T17:44:39.508Z,2.90
2023-05-12T17:47:07.368Z,3.60
2023-05-12T17:49:34.317Z,3.23
2023-05-12T17:52:01.210Z,4.77
2023-05-12T17:54:28.093Z,3.83
2023-05-12T17:56:54.947Z,3.97
2023-05-12T17:59:21.938Z,3.67
2023-05-12T18:01:50.160Z,3.07
2023-05-12T18:04:17.119Z,4.33
2023-05-12T18:06:43.950Z,3.20
2023-05-12T18:09:10.946Z,3.67
2023-05-12T18:11:37.803Z,4.80
2023-05-12T18:14:05.897Z,3.87
2023-05-12T18:16:33.313Z,3.73
2023-05-12T18:19:01.847Z,4.97
2023-05-12T18:21:28.862Z,3.93
2023-05-12T18:23:56.172Z,3.70
2023-05-12T18:26:23.030Z,3.97
2023-05-12T18:28:49.977Z,4.47
2023-05-12T18:31:19.561Z,3.70
2023-05-12T18:33:47.226Z,4.53
2023-05-12T18:36:15.657Z,3.87
2023-05-12T18:38:42.539Z,3.90
2023-05-12T18:41:09.798Z,5.90
2023-05-12T18:43:36.747Z,4.30
2023-05-12T18:46:04.395Z,3.83
2023-05-12T18:48:31.372Z,4.60
2023-05-12T18:50:58.428Z,4.77
2023-05-12T18:53:26.722Z,3.70
2023-05-12T18:55:53.592Z,3.87
2023-05-12T18:58:20.437Z,3.20
2023-05-12T19:00:47.335Z,3.63
2023-05-12T19:03:14.257Z,3.50
2023-05-12T19:05:44.325Z,4.57
2023-05-12T19:08:11.442Z,3.30
2023-05-12T19:10:40.223Z,4.03
2023-05-12T19:13:08.038Z,3.20
2023-05-12T19:15:36.125Z,4.03
2023-05-12T19:18:03.142Z,4.07
2023-05-12T19:20:30.636Z,3.43
2023-05-12T19:22:59.655Z,3.47
2023-05-12T19:25:26.615Z,3.23
2023-05-12T19:27:54.850Z,4.00
2023-05-12T19:30:21.827Z,3.27
2023-05-12T19:32:50.127Z,3.70
2023-05-12T19:35:17.228Z,4.53
2023-05-12T19:37:44.326Z,3.23
2023-05-12T19:40:11.750Z,4.83
2023-05-12T19:42:38.803Z,3.87
2023-05-12T19:45:08.359Z,3.47
2023-05-12T19:47:36.467Z,3.77
2023-05-12T19:50:03.994Z,3.23
2023-05-12T19:52:31.614Z,4.03
2023-05-12T19:54:58.451Z,3.10
2023-05-12T19:57:25.622Z,3.10
2023-05-12T19:59:52.558Z,2.87
2023-05-12T20:02:21.027Z,2.40
2023-05-12T20:04:47.982Z,2.77
2023-05-12T20:07:14.816Z,2.63
2023-05-12T20:09:41.806Z,2.97
2023-05-12T20:12:09.468Z,3.03
2023-05-12T20:14:38.283Z,2.67
2023-05-12T20:17:07.177Z,2.33
2023-05-12T20:19:35.729Z,2.20
2023-05-12T20:22:02.643Z,2.63
2023-05-12T20:24:29.543Z,2.30
2023-05-12T20:26:56.698Z,2.57
2023-05-12T20:29:25.732Z,3.00
2023-05-12T20:31:53.256Z,2.40
2023-05-12T20:34:20.135Z,2.70
2023-05-12T20:36:48.584Z,3.97
2023-05-12T20:39:15.565Z,2.13
2023-05-12T20:41:43.832Z,2.93
2023-05-12T20:44:10.855Z,2.20
2023-05-12T20:46:39.436Z,3.73
2023-05-12T20:49:09.584Z,2.73
2023-05-12T20:51:36.502Z,2.67
2023-05-12T20:54:05.436Z,4.10
2023-05-12T20:56:32.298Z,3.17
2023-05-12T20:58:59.197Z,2.80
2023-05-12T21:01:26.291Z,2.30
2023-05-12T21:03:53.209Z,2.10
2023-05-12T21:06:20.104Z,3.20
2023-05-12T21:08:46.973Z,3.20
2023-05-12T21:11:16.824Z,2.80
2023-05-12T21:13:43.879Z,3.47
2023-05-12T21:16:11.161Z,2.27
2023-05-12T21:18:38.449Z,3.33
2023-05-12T21:21:06.479Z,2.50
2023-05-12T21:23:34.771Z,2.47
2023-05-12T21:26:01.725Z,2.77
2023-05-12T21:28:30.002Z,2.80
2023-05-12T21:30:56.948Z,2.70
2023-05-12T21:33:23.882Z,2.47
2023-05-12T21:35:51.174Z,2.50
2023-05-12T21:38:18.168Z,3.47
2023-05-12T21:40:48.918Z,2.40
2023-05-12T21:43:15.734Z,2.77
2023-05-12T21:45:44.725Z,2.17
2023-05-12T21:48:12.405Z,3.20
2023-05-12T21:50:39.411Z,1.90
2023-05-12T21:53:06.487Z,2.10
2023-05-12T21:55:33.363Z,3.03
2023-05-12T21:58:00.218Z,2.83
2023-05-12T22:00:27.521Z,2.43
2023-05-12T22:02:55.805Z,2.73
2023-05-12T22:05:23.625Z,2.53
2023-05-12T22:07:50.564Z,2.27
2023-05-12T22:10:18.099Z,3.00
2023-05-12T22:12:45.827Z,3.40
2023-05-12T22:15:12.757Z,2.43
2023-05-12T22:17:39.722Z,2.37
2023-05-12T22:20:09.486Z,2.43
2023-05-12T22:22:36.382Z,2.13
2023-05-12T22:25:04.638Z,3.10
2023-05-12T22:27:31.553Z,4.53
2023-05-12T22:29:58.420Z,2.47
2023-05-12T22:32:25.435Z,2.30
2023-05-12T22:34:52.826Z,2.33
2023-05-12T22:37:22.158Z,2.50
2023-05-12T22:39:49.035Z,3.67
2023-05-12T22:42:15.959Z,2.90
2023-05-12T22:44:42.869Z,2.63
2023-05-12T22:47:09.849Z,2.97
2023-05-12T22:49:36.747Z,2.87
2023-05-12T22:52:03.995Z,4.07
2023-05-12T22:54:32.203Z,2.57
2023-05-12T22:56:59.072Z,2.83
2023-05-12T22:59:25.976Z,4.07
2023-05-12T23:01:52.834Z,2.57
2023-05-12T23:04:19.902Z,3.00
2023-05-12T23:06:46.972Z,3.53
2023-05-12T23:09:14.172Z,3.40
2023-05-12T23:11:42.571Z,3.17
2023-05-12T23:14:11.318Z,4.20
2023-05-12T23:16:38.259Z,3.87
2023-05-12T23:19:05.399Z,3.57
2023-05-12T23:21:32.776Z,3.60
2023-05-12T23:23:59.662Z,3.20
2023-05-12T23:26:26.664Z,3.20
2023-05-12T23:28:54.923Z,3.93
2023-05-12T23:31:21.877Z,4.00
2023-05-12T23:33:48.781Z,3.10
2023-05-12T23:36:15.810Z,3.13
2023-05-12T23:38:42.860Z,4.57
2023-05-12T23:41:09.697Z,3.10
2023-05-12T23:43:36.701Z,4.80
2023-05-12T23:46:05.107Z,3.67
2023-05-12T23:48:32.328Z,3.13
2023-05-12T23:50:59.201Z,3.77
2023-05-12T23:53:26.202Z,3.73
2023-05-12T23:55:53.072Z,3.37
2023-05-12T23:58:20.285Z,4.90
